createdAt,value
2023-01-30T00:01:29.097Z,49.90
2023-01-30T00:03:56.579Z,48.97
2023-01-30T00:06:24.084Z,50.72
2023-01-30T00:08:51.529Z,48.15
2023-01-30T00:11:19.986Z,52.85
2023-01-30T00:13:49.935Z,45.58
2023-01-30T00:16:18.656Z,48.47
2023-01-30T00:18:45.727Z,48.90
2023-01-30T00:21:15.101Z,52.45
2023-01-30T00:23:42.460Z,52.85
2023-01-30T00:26:11.152Z,55.67
2023-01-30T00:28:39.863Z,49.47
2023-01-30T00:31:07.833Z,45.25
2023-01-30T00:33:38.321Z,50.80
2023-01-30T00:36:06.223Z,48.70
2023-01-30T00:38:33.322Z,54.65
2023-01-30T00:41:00.302Z,50.67
2023-01-30T00:43:45.872Z,57.35
2023-01-30T00:46:53.142Z,49.90
2023-01-30T00:49:20.692Z,51.03
2023-01-30T00:51:48.882Z,56.08
2023-01-30T00:54:16.774Z,48.55
2023-01-30T00:56:43.778Z,49.33
2023-01-30T00:59:10.769Z,52.28
2023-01-30T01:01:38.056Z,46.67
2023-01-30T01:04:06.796Z,50.80
2023-01-30T01:06:33.751Z,51.53
2023-01-30T01:09:00.753Z,53.65
2023-01-30T01:11:27.979Z,59.47
2023-01-30T01:14:00.665Z,55.88
2023-01-30T01:16:30.999Z,52.07
2023-01-30T01:18:59.650Z,51.78
2023-01-30T01:21:26.627Z,58.42
2023-01-30T01:23:59.927Z,59.53
2023-01-30T01:26:27.732Z,59.83
2023-01-30T01:28:58.580Z,50.63
2023-01-30T01:31:26.163Z,58.38
2023-01-30T01:33:55.510Z,56.75
2023-01-30T01:36:52.260Z,53.83
2023-01-30T01:39:09.901Z,51.55
2023-01-30T01:41:36.847Z,56.78
2023-01-30T01:44:08.830Z,54.33
2023-01-30T01:46:56.966Z,50.65
2023-01-30T01:49:33.472Z,54.17
2023-01-30T01:52:09.837Z,55.75
2023-01-30T01:54:56.923Z,50.20
2023-01-30T01:57:34.066Z,50.65
2023-01-30T02:00:17.692Z,46.00
2023-01-30T02:02:54.887Z,49.83
2023-01-30T02:05:22.947Z,51.35
2023-01-30T02:08:01.342Z,50.97
2023-01-30T02:10:49.221Z,50.90
2023-01-30T02:13:16.814Z,49.75
2023-01-30T02:15:44.045Z,46.83
2023-01-30T02:18:13.546Z,47.42
2023-01-30T02:20:43.486Z,48.38
2023-01-30T02:23:35.565Z,51.83
2023-01-30T02:26:16.114Z,51.30
2023-01-30T02:29:47.049Z,46.58
2023-01-30T02:32:29.857Z,45.75
2023-01-30T02:35:38.872Z,48.80
2023-01-30T02:38:08.776Z,48.40
2023-01-30T02:40:50.417Z,46.78
2023-01-30T02:43:36.748Z,52.95
2023-01-30T02:46:43.043Z,62.53
2023-01-30T02:49:23.720Z,60.95
2023-01-30T02:51:51.419Z,47.95
2023-01-30T02:54:18.383Z,51.78
2023-01-30T02:56:48.210Z,56.72
2023-01-30T02:59:21.567Z,50.45
2023-01-30T03:02:05.581Z,54.50
2023-01-30T03:04:54.136Z,51.00
2023-01-30T03:07:48.799Z,56.90
2023-01-30T03:10:40.016Z,60.30
2023-01-30T03:13:29.333Z,60.10
2023-01-30T03:16:14.615Z,60.22
2023-01-30T03:18:46.077Z,57.85
2023-01-30T03:21:17.015Z,53.20
2023-01-30T03:23:47.910Z,52.70
2023-01-30T03:26:21.130Z,54.35
2023-01-30T03:28:51.089Z,56.55
2023-01-30T03:31:18.429Z,52.80
2023-01-30T03:33:45.888Z,60.22
2023-01-30T03:36:14.266Z,57.33
2023-01-30T03:38:41.521Z,57.08
2023-01-30T03:41:08.706Z,61.22
2023-01-30T03:43:35.676Z,59.65
2023-01-30T03:46:05.398Z,54.28
2023-01-30T03:48:33.006Z,55.88
2023-01-30T03:51:01.150Z,59.92
2023-01-30T03:53:30.285Z,64.10
2023-01-30T03:55:57.439Z,63.58
2023-01-30T03:58:29.772Z,59.95
2023-01-30T04:00:58.755Z,65.28
2023-01-30T04:03:26.704Z,60.08
2023-01-30T04:05:58.568Z,61.60
2023-01-30T04:08:25.961Z,59.05
2023-01-30T04:10:53.282Z,57.78
2023-01-30T04:13:21.087Z,62.28
2023-01-30T04:15:48.270Z,63.72
2023-01-30T04:18:44.837Z,60.15
2023-01-30T04:21:19.356Z,61.80
2023-01-30T04:23:46.723Z,58.22
2023-01-30T04:26:14.398Z,56.03
2023-01-30T04:28:42.313Z,62.25
2023-01-30T04:31:09.460Z,62.50
2023-01-30T04:33:55.201Z,56.78
2023-01-30T04:36:22.396Z,63.25
2023-01-30T04:38:50.034Z,57.65
2023-01-30T04:41:19.701Z,61.35
2023-01-30T04:43:46.760Z,66.75
2023-01-30T04:46:14.200Z,65.55
2023-01-30T04:48:42.506Z,63.38
2023-01-30T04:51:10.245Z,66.32
2023-01-30T04:53:38.475Z,63.95
2023-01-30T04:56:06.581Z,68.13
2023-01-30T04:58:33.595Z,61.42
2023-01-30T05:01:36.041Z,60.78
2023-01-30T05:04:04.737Z,64.53
2023-01-30T05:06:33.145Z,62.70
2023-01-30T05:09:00.573Z,64.15
2023-01-30T05:11:29.718Z,72.03
2023-01-30T05:13:56.896Z,72.45
2023-01-30T05:16:24.611Z,68.07
2023-01-30T05:18:51.693Z,73.72
2023-01-30T05:21:26.028Z,72.78
2023-01-30T05:26:22.077Z,68.35
2023-01-30T05:28:57.397Z,73.38
2023-01-30T05:31:25.000Z,67.45
2023-01-30T05:33:52.714Z,71.00
2023-01-30T05:36:22.641Z,68.82
2023-01-30T05:38:49.928Z,72.07
2023-01-30T05:41:17.935Z,71.90
2023-01-30T05:43:50.441Z,71.72
2023-01-30T05:46:18.345Z,64.38
2023-01-30T05:48:45.638Z,66.28
2023-01-30T05:51:22.004Z,74.32
2023-01-30T05:53:49.876Z,70.60
2023-01-30T05:56:18.484Z,64.28
2023-01-30T05:58:54.857Z,69.57
2023-01-30T06:01:23.850Z,69.95
2023-01-30T06:03:51.616Z,66.72
2023-01-30T06:06:19.578Z,68.97
2023-01-30T06:08:47.092Z,73.72
2023-01-30T06:11:16.643Z,70.32
2023-01-30T06:13:44.456Z,73.05
2023-01-30T06:16:14.921Z,65.13
2023-01-30T06:18:42.069Z,66.38
2023-01-30T06:21:09.929Z,78.53
2023-01-30T06:23:37.018Z,63.72
2023-01-30T06:26:06.249Z,68.90
2023-01-30T06:28:36.184Z,63.83
2023-01-30T06:31:06.184Z,65.38
2023-01-30T06:33:33.282Z,67.78
2023-01-30T06:36:00.547Z,66.07
2023-01-30T06:38:27.574Z,64.18
2023-01-30T06:40:55.013Z,67.65
2023-01-30T06:43:23.438Z,64.53
2023-01-30T06:45:50.588Z,68.07
2023-01-30T06:48:17.910Z,72.88
2023-01-30T06:50:47.507Z,68.47
2023-01-30T06:53:15.035Z,64.88
2023-01-30T06:55:42.109Z,69.20
2023-01-30T06:58:13.242Z,66.15
2023-01-30T07:00:42.556Z,66.45
2023-01-30T07:03:18.184Z,69.60
2023-01-30T07:05:47.625Z,69.18
2023-01-30T07:08:16.340Z,65.50
2023-01-30T07:10:44.741Z,63.20
2023-01-30T07:13:12.602Z,63.45
2023-01-30T07:15:39.589Z,63.22
2023-01-30T07:18:06.687Z,62.47
2023-01-30T07:20:34.118Z,66.05
2023-01-30T07:23:01.759Z,63.42
2023-01-30T07:25:29.347Z,61.50
2023-01-30T07:28:02.466Z,61.55
2023-01-30T07:30:33.380Z,65.90
2023-01-30T07:33:00.805Z,61.83
2023-01-30T07:35:32.259Z,64.07
2023-01-30T07:37:59.823Z,63.97
2023-01-30T07:40:27.172Z,62.72
2023-01-30T07:43:07.946Z,56.92
2023-01-30T07:45:40.036Z,59.80
2023-01-30T07:48:09.049Z,63.35
2023-01-30T07:50:36.946Z,58.05
2023-01-30T07:53:06.738Z,64.43
2023-01-30T07:55:34.882Z,64.18
2023-01-30T07:58:02.678Z,58.58
2023-01-30T08:00:30.773Z,64.78
2023-01-30T08:02:58.735Z,56.47
2023-01-30T08:05:26.475Z,61.60
2023-01-30T08:07:56.332Z,57.70
2023-01-30T08:10:23.909Z,64.53
2023-01-30T08:12:51.667Z,62.55
2023-01-30T08:15:20.141Z,59.95
2023-01-30T08:17:56.744Z,59.45
2023-01-30T08:20:25.297Z,65.53
2023-01-30T08:22:52.911Z,66.25
2023-01-30T08:25:20.899Z,66.38
2023-01-30T08:27:48.272Z,57.88
2023-01-30T08:30:15.395Z,59.55
2023-01-30T08:32:42.473Z,61.85
2023-01-30T08:35:11.755Z,65.65
2023-01-30T08:37:41.295Z,56.33
2023-01-30T08:40:10.334Z,64.90
2023-01-30T08:42:37.685Z,67.78
2023-01-30T08:45:05.416Z,66.78
2023-01-30T08:47:32.460Z,69.97
2023-01-30T08:49:59.681Z,62.75
2023-01-30T08:52:26.650Z,61.10
2023-01-30T08:54:53.697Z,64.63
2023-01-30T08:57:20.792Z,67.95
2023-01-30T08:59:47.795Z,61.08
2023-01-30T09:02:14.919Z,72.57
2023-01-30T09:04:41.919Z,68.43
2023-01-30T09:07:09.539Z,67.85
2023-01-30T09:09:36.768Z,65.35
2023-01-30T09:12:04.055Z,72.57
2023-01-30T09:14:31.089Z,62.25
2023-01-30T09:16:58.678Z,66.38
2023-01-30T09:19:28.326Z,60.15
2023-01-30T09:21:56.666Z,61.15
2023-01-30T09:24:26.682Z,60.17
2023-01-30T09:26:59.097Z,64.45
2023-01-30T09:29:27.908Z,57.22
2023-01-30T09:31:59.453Z,63.17
2023-01-30T09:34:28.957Z,67.85
2023-01-30T09:37:01.799Z,67.60
2023-01-30T09:39:30.282Z,56.08
2023-01-30T09:42:05.188Z,66.95
2023-01-30T09:44:54.030Z,66.88
2023-01-30T09:47:58.406Z,62.35
2023-01-30T09:51:01.930Z,59.47
2023-01-30T09:54:13.036Z,142.85
2023-01-30T09:56:40.434Z,63.10
2023-01-30T09:59:17.793Z,57.58
2023-01-30T10:02:01.571Z,60.58
2023-01-30T10:04:43.856Z,63.47
2023-01-30T10:07:53.514Z,61.13
2023-01-30T10:10:38.619Z,62.42
2023-01-30T10:13:33.065Z,55.75
2023-01-30T10:16:15.373Z,61.05
2023-01-30T10:19:18.140Z,60.47
2023-01-30T10:22:31.930Z,60.08
2023-01-30T10:25:35.606Z,57.53
2023-01-30T10:28:23.866Z,65.18
2023-01-30T10:31:02.722Z,63.17
2023-01-30T10:33:45.005Z,61.05
2023-01-30T10:36:21.430Z,56.30
2023-01-30T10:38:52.090Z,62.83
2023-01-30T10:41:37.104Z,59.97
2023-01-30T10:44:11.332Z,60.90
2023-01-30T10:49:28.111Z,62.80
2023-01-30T10:52:10.658Z,59.50
2023-01-30T10:54:53.955Z,60.28
2023-01-30T10:57:25.990Z,63.53
2023-01-30T11:00:10.459Z,64.38
2023-01-30T11:03:23.154Z,64.45
2023-01-30T11:05:57.765Z,62.80
2023-01-30T11:08:33.416Z,62.63
2023-01-30T11:11:01.499Z,68.07
2023-01-30T11:13:34.545Z,64.07
2023-01-30T11:16:08.537Z,68.38
2023-01-30T11:19:18.952Z,65.65
2023-01-30T11:21:44.000Z,59.97
2023-01-30T11:24:38.855Z,66.85
2023-01-30T11:27:20.184Z,59.55
2023-01-30T11:29:50.378Z,58.90
2023-01-30T11:32:28.147Z,64.53
2023-01-30T11:35:06.576Z,59.38
2023-01-30T11:37:42.012Z,59.95
2023-01-30T11:40:21.245Z,55.55
2023-01-30T11:42:52.873Z,56.47
2023-01-30T11:45:26.159Z,55.42
2023-01-30T11:47:58.754Z,52.13
2023-01-30T11:50:41.262Z,54.67
2023-01-30T11:53:41.802Z,54.00
2023-01-30T11:56:23.108Z,49.45
2023-01-30T11:58:59.275Z,44.65
2023-01-30T12:01:30.418Z,51.80
2023-01-30T12:03:59.118Z,46.42
2023-01-30T12:06:32.679Z,48.85
2023-01-30T12:09:00.251Z,49.88
2023-01-30T12:11:32.267Z,51.25
2023-01-30T12:14:24.216Z,52.85
2023-01-30T12:17:21.671Z,49.45
2023-01-30T12:20:07.762Z,47.55
2023-01-30T12:23:05.464Z,48.60
2023-01-30T12:26:04.071Z,46.88
2023-01-30T12:28:55.455Z,47.45
2023-01-30T12:32:11.770Z,45.53
2023-01-30T12:34:39.205Z,53.65
2023-01-30T12:37:15.478Z,49.03
2023-01-30T12:40:18.625Z,50.10
2023-01-30T12:43:22.936Z,51.17
2023-01-30T12:46:12.563Z,48.53
2023-01-30T12:49:25.667Z,50.78
2023-01-30T12:52:45.829Z,49.60
2023-01-30T12:55:43.083Z,50.22
2023-01-30T12:58:35.103Z,49.55
2023-01-30T13:01:29.815Z,48.80
2023-01-30T13:04:51.331Z,53.95
2023-01-30T13:07:59.012Z,48.58
2023-01-30T13:10:50.796Z,49.90
2023-01-30T13:13:53.457Z,46.13
2023-01-30T13:16:24.423Z,49.13
2023-01-30T13:19:23.077Z,43.58
2023-01-30T13:21:54.849Z,47.08
2023-01-30T13:25:04.342Z,44.58
2023-01-30T13:27:37.580Z,50.05
2023-01-30T13:30:10.507Z,48.28
2023-01-30T13:32:48.663Z,48.85
2023-01-30T13:35:31.939Z,46.03
2023-01-30T13:38:00.363Z,43.47
2023-01-30T13:40:40.521Z,49.92
2023-01-30T13:43:33.442Z,43.85
2023-01-30T13:46:07.516Z,46.10
2023-01-30T13:49:07.302Z,45.97
2023-01-30T13:51:43.779Z,50.13
2023-01-30T13:54:29.076Z,45.65
2023-01-30T13:57:30.016Z,45.67
2023-01-30T14:00:22.782Z,45.10
2023-01-30T14:03:08.537Z,45.65
2023-01-30T14:06:05.819Z,40.50
2023-01-30T14:08:45.315Z,50.90
2023-01-30T14:11:36.433Z,42.00
2023-01-30T14:14:22.928Z,45.95
2023-01-30T14:16:57.297Z,46.75
2023-01-30T14:21:57.592Z,45.53
2023-01-30T14:24:25.113Z,45.30
2023-01-30T14:27:04.364Z,51.63
2023-01-30T14:29:45.923Z,47.90
2023-01-30T14:32:13.859Z,47.50
2023-01-30T14:34:42.390Z,46.83
2023-01-30T14:37:41.687Z,44.45
2023-01-30T14:40:21.526Z,46.67
2023-01-30T14:43:14.901Z,44.20
2023-01-30T14:46:03.467Z,48.53
2023-01-30T14:48:58.255Z,47.38
2023-01-30T14:51:40.388Z,50.72
2023-01-30T14:54:14.283Z,49.65
2023-01-30T14:57:05.681Z,48.25
2023-01-30T14:59:37.655Z,48.33
2023-01-30T15:02:13.891Z,49.47
2023-01-30T15:04:49.320Z,50.53
2023-01-30T15:07:46.976Z,48.85
2023-01-30T15:10:53.387Z,45.53
2023-01-30T15:13:46.596Z,49.70
2023-01-30T15:16:54.141Z,47.90
2023-01-30T15:19:55.298Z,48.10
2023-01-30T15:22:47.310Z,54.33
2023-01-30T15:25:27.676Z,51.13
2023-01-30T15:29:05.394Z,54.40
2023-01-30T15:31:32.425Z,53.55
2023-01-30T15:33:59.648Z,50.80
2023-01-30T15:36:32.103Z,51.47
2023-01-30T15:39:04.923Z,50.83
2023-01-30T15:41:41.138Z,56.05
2023-01-30T15:44:23.689Z,50.85
2023-01-30T15:46:59.612Z,59.50
2023-01-30T15:49:43.353Z,78.18
2023-01-30T15:52:18.049Z,64.43
2023-01-30T15:55:02.282Z,54.60
2023-01-30T15:57:37.987Z,55.90
2023-01-30T16:00:09.203Z,58.03
2023-01-30T16:02:42.903Z,75.57
2023-01-30T16:05:20.471Z,70.57
2023-01-30T16:07:51.058Z,72.35
2023-01-30T16:10:25.506Z,52.42
2023-01-30T16:12:56.742Z,64.70
2023-01-30T16:15:25.879Z,58.13
2023-01-30T16:18:10.569Z,59.10
2023-01-30T16:21:00.726Z,64.00
2023-01-30T16:23:37.794Z,61.05
2023-01-30T16:26:17.395Z,69.78
2023-01-30T16:28:45.380Z,58.83
2023-01-30T16:31:12.680Z,62.65
2023-01-30T16:33:39.746Z,55.35
2023-01-30T16:36:21.985Z,62.95
2023-01-30T16:38:51.079Z,54.15
2023-01-30T16:41:40.061Z,54.55
2023-01-30T16:44:31.939Z,57.70
2023-01-30T16:47:25.395Z,59.58
2023-01-30T16:49:55.154Z,53.08
2023-01-30T16:52:41.352Z,57.05
2023-01-30T16:55:21.185Z,60.47
2023-01-30T16:58:03.221Z,61.97
2023-01-30T17:00:40.047Z,62.95
2023-01-30T17:03:33.711Z,62.83
2023-01-30T17:06:07.473Z,60.05
2023-01-30T17:08:40.259Z,57.22
2023-01-30T17:11:07.263Z,63.45
2023-01-30T17:13:39.024Z,67.43
2023-01-30T17:16:30.985Z,63.70
2023-01-30T17:18:58.382Z,69.43
2023-01-30T17:21:31.225Z,64.03
2023-01-30T17:24:02.325Z,69.70
2023-01-30T17:26:30.834Z,67.25
2023-01-30T17:28:57.861Z,66.80
2023-01-30T17:31:25.357Z,66.05
2023-01-30T17:33:53.185Z,66.38
2023-01-30T17:36:27.829Z,70.10
2023-01-30T17:39:02.478Z,68.47
2023-01-30T17:41:32.925Z,67.15
2023-01-30T17:44:00.011Z,63.10
2023-01-30T17:46:41.040Z,72.20
2023-01-30T17:49:23.483Z,70.30
2023-01-30T17:51:51.727Z,66.95
2023-01-30T17:54:20.618Z,62.88
2023-01-30T17:56:54.265Z,62.78
2023-01-30T17:59:22.322Z,72.70
2023-01-30T18:01:52.448Z,68.90
2023-01-30T18:04:20.671Z,76.75
2023-01-30T18:06:52.683Z,91.18
2023-01-30T18:09:23.206Z,72.53
2023-01-30T18:11:51.333Z,82.88
2023-01-30T18:14:18.802Z,81.10
2023-01-30T18:16:46.376Z,93.18
2023-01-30T18:19:18.039Z,84.43
2023-01-30T18:21:45.658Z,83.50
2023-01-30T18:24:13.906Z,79.05
2023-01-30T18:26:41.954Z,71.47
2023-01-30T18:29:09.941Z,94.00
2023-01-30T18:31:38.783Z,76.18
2023-01-30T18:34:07.181Z,68.93
2023-01-30T18:36:35.894Z,87.10
2023-01-30T18:39:04.430Z,84.30
2023-01-30T18:41:31.826Z,81.10
2023-01-30T18:44:06.063Z,87.72
2023-01-30T18:49:00.638Z,79.88
2023-01-30T18:51:33.680Z,80.95
2023-01-30T18:54:02.100Z,81.13
2023-01-30T18:56:34.327Z,74.88
2023-01-30T18:59:05.541Z,76.90
2023-01-30T19:01:38.888Z,73.85
2023-01-30T19:04:09.722Z,74.07
2023-01-30T19:06:41.181Z,75.38
2023-01-30T19:09:12.909Z,75.30
2023-01-30T19:11:58.604Z,71.20
2023-01-30T19:14:26.564Z,71.50
2023-01-30T19:16:54.575Z,75.15
2023-01-30T19:19:21.954Z,77.22
2023-01-30T19:21:50.569Z,73.95
2023-01-30T19:24:17.518Z,74.30
2023-01-30T19:26:44.722Z,67.38
2023-01-30T19:29:11.732Z,75.57
2023-01-30T19:31:38.864Z,74.60
2023-01-30T19:34:06.361Z,77.30
2023-01-30T19:36:36.051Z,76.55
2023-01-30T19:39:06.290Z,77.13
2023-01-30T19:41:36.477Z,75.05
2023-01-30T19:44:07.686Z,77.03
2023-01-30T19:46:35.573Z,75.40
2023-01-30T19:49:03.534Z,72.28
2023-01-30T19:51:33.464Z,77.82
2023-01-30T19:54:04.962Z,81.40
2023-01-30T19:56:33.351Z,79.90
2023-01-30T19:59:01.768Z,78.18
2023-01-30T20:01:32.975Z,78.72
2023-01-30T20:04:02.305Z,74.35
2023-01-30T20:06:32.013Z,70.82
2023-01-30T20:09:02.289Z,64.65
2023-01-30T20:11:30.468Z,65.78
2023-01-30T20:13:58.931Z,68.88
2023-01-30T20:16:27.735Z,70.00
2023-01-30T20:19:07.755Z,68.82
2023-01-30T20:21:36.124Z,78.55
2023-01-30T20:24:03.707Z,71.75
2023-01-30T20:26:36.429Z,73.22
2023-01-30T20:29:04.638Z,71.38
2023-01-30T20:31:32.735Z,68.78
2023-01-30T20:34:05.824Z,69.22
2023-01-30T20:36:33.685Z,78.43
2023-01-30T20:39:06.544Z,74.43
2023-01-30T20:41:35.707Z,80.47
2023-01-30T20:44:03.723Z,78.85
2023-01-30T20:46:40.936Z,73.95
2023-01-30T20:49:13.955Z,73.28
2023-01-30T20:51:41.727Z,75.55
2023-01-30T20:54:11.243Z,68.05
2023-01-30T20:56:47.072Z,74.05
2023-01-30T20:59:20.332Z,73.55
2023-01-30T21:01:47.376Z,72.90
2023-01-30T21:04:16.907Z,65.82
2023-01-30T21:06:45.974Z,74.90
2023-01-30T21:09:17.958Z,74.88
2023-01-30T21:11:45.898Z,70.97
2023-01-30T21:14:13.183Z,85.38
2023-01-30T21:16:40.988Z,78.78
2023-01-30T21:19:14.315Z,80.35
2023-01-30T21:21:54.090Z,78.80
2023-01-30T21:24:26.372Z,80.18
2023-01-30T21:26:55.440Z,74.57
2023-01-30T21:29:26.414Z,78.93
2023-01-30T21:31:54.191Z,75.40
2023-01-30T21:34:22.104Z,74.53
2023-01-30T21:37:09.039Z,78.00
2023-01-30T21:39:55.309Z,73.65
2023-01-30T21:42:41.243Z,68.15
2023-01-30T21:45:08.868Z,67.57
2023-01-30T21:47:36.748Z,66.70
2023-01-30T21:50:04.330Z,62.97
2023-01-30T21:52:33.191Z,69.07
2023-01-30T21:55:00.486Z,68.57
2023-01-30T21:57:27.467Z,84.55
2023-01-30T21:59:54.416Z,75.47
2023-01-30T22:02:21.563Z,76.68
2023-01-30T22:04:48.757Z,75.22
2023-01-30T22:07:15.771Z,74.63
2023-01-30T22:09:42.892Z,70.28
2023-01-30T22:12:11.017Z,72.55
2023-01-30T22:14:38.748Z,70.85
2023-01-30T22:17:06.323Z,69.88
2023-01-30T22:19:35.684Z,77.55
2023-01-30T22:22:03.617Z,73.93
2023-01-30T22:24:30.841Z,72.28
2023-01-30T22:26:57.934Z,69.72
2023-01-30T22:29:24.946Z,75.93
2023-01-30T22:31:52.077Z,68.00
2023-01-30T22:34:19.317Z,71.63
2023-01-30T22:36:47.897Z,76.90
2023-01-30T22:39:15.171Z,66.93
2023-01-30T22:41:42.564Z,69.88
2023-01-30T22:44:10.461Z,75.03
2023-01-30T22:46:40.133Z,69.38
2023-01-30T22:49:09.373Z,74.47
2023-01-30T22:51:39.916Z,73.07
2023-01-30T22:54:11.368Z,77.18
2023-01-30T22:56:44.971Z,80.40
2023-01-30T22:59:13.089Z,81.72
2023-01-30T23:01:44.799Z,79.95
2023-01-30T23:04:14.577Z,82.55
2023-01-30T23:06:42.794Z,87.03
2023-01-30T23:09:13.981Z,82.88
2023-01-30T23:12:06.745Z,82.90
2023-01-30T23:14:34.239Z,76.53
2023-01-30T23:17:01.288Z,82.30
2023-01-30T23:19:28.521Z,80.80
2023-01-30T23:21:55.399Z,76.18
2023-01-30T23:24:22.437Z,75.63
2023-01-30T23:26:51.430Z,76.55
2023-01-30T23:29:20.491Z,76.78
2023-01-30T23:31:48.147Z,74.63
2023-01-30T23:34:18.859Z,77.50
2023-01-30T23:36:46.928Z,89.65
2023-01-30T23:39:15.302Z,85.45
2023-01-30T23:41:43.077Z,76.38
2023-01-30T23:44:10.757Z,81.03
2023-01-30T23:46:41.285Z,81.78
2023-01-30T23:49:15.716Z,92.35
2023-01-30T23:51:44.717Z,83.90
2023-01-30T23:54:13.455Z,79.55
2023-01-30T23:56:43.189Z,80.90
2023-01-30T23:59:10.964Z,80.82
